sensor_id;sensor_type;location;lat;lon;timestamp;temperature;humidity
26703;DHT22;14316;51.074;3.704;2022-12-10T00:01:50;0.40;99.90
26703;DHT22;14316;51.074;3.704;2022-12-10T00:04:17;1.00;99.90
26703;DHT22;14316;51.074;3.704;2022-12-10T00:06:43;0.60;99.90
26703;DHT22;14316;51.074;3.704;2022-12-10T00:09:14;0.60;99.90
26703;DHT22;14316;51.074;3.704;2022-12-10T00:11:41;0.30;99.90
26703;DHT22;14316;51.074;3.704;2022-12-10T00:14:08;0.20;99.90
26703;DHT22;14316;51.074;3.704;2022-12-10T00:16:34;0.10;99.90
26703;DHT22;14316;51.074;3.704;2022-12-10T00:19:00;0.10;99.90
26703;DHT22;14316;51.074;3.704;2022-12-10T00:21:30;0.10;99.90
26703;DHT22;14316;51.074;3.704;2022-12-10T00:23:57;0.00;99.90
26703;DHT22;14316;51.074;3.704;2022-12-10T00:26:25;-0.10;99.90
26703;DHT22;14316;51.074;3.704;2022-12-10T00:28:51;0.00;99.90
26703;DHT22;14316;51.074;3.704;2022-12-10T00:31:23;0.00;99.90
26703;DHT22;14316;51.074;3.704;2022-12-10T00:33:49;0.00;99.90
26703;DHT22;14316;51.074;3.704;2022-12-10T00:36:17;0.00;99.90
26703;DHT22;14316;51.074;3.704;2022-12-10T00:38:44;-0.10;99.90
26703;DHT22;14316;51.074;3.704;2022-12-10T00:41:11;-0.10;99.90
26703;DHT22;14316;51.074;3.704;2022-12-10T00:43:37;-0.30;99.90
26703;DHT22;14316;51.074;3.704;2022-12-10T00:46:03;-0.30;99.90
26703;DHT22;14316;51.074;3.704;2022-12-10T00:48:29;-0.30;99.90
26703;DHT22;14316;51.074;3.704;2022-12-10T00:51:03;-0.30;99.90
26703;DHT22;14316;51.074;3.704;2022-12-10T00:53:30;-0.30;99.90
26703;DHT22;14316;51.074;3.704;2022-12-10T00:55:57;-0.30;99.90
26703;DHT22;14316;51.074;3.704;2022-12-10T00:58:27;-0.40;99.90
26703;DHT22;14316;51.074;3.704;2022-12-10T01:00:53;-0.30;99.90
26703;DHT22;14316;51.074;3.704;2022-12-10T01:03:18;-0.20;99.90
26703;DHT22;14316;51.074;3.704;2022-12-10T01:05:44;-0.20;99.90
26703;DHT22;14316;51.074;3.704;2022-12-10T01:08:11;-0.20;99.90
26703;DHT22;14316;51.074;3.704;2022-12-10T01:10:37;-0.30;99.90
26703;DHT22;14316;51.074;3.704;2022-12-10T01:13:04;-0.30;99.90
26703;DHT22;14316;51.074;3.704;2022-12-10T01:15:30;-0.40;99.90
26703;DHT22;14316;51.074;3.704;2022-12-10T01:17:55;-0.50;99.90
26703;DHT22;14316;51.074;3.704;2022-12-10T01:20:21;-0.40;99.90
26703;DHT22;14316;51.074;3.704;2022-12-10T01:22:46;-0.40;99.90
26703;DHT22;14316;51.074;3.704;2022-12-10T01:25:13;-0.40;99.90
26703;DHT22;14316;51.074;3.704;2022-12-10T01:27:38;-0.40;99.90
26703;DHT22;14316;51.074;3.704;2022-12-10T01:30:04;-0.20;99.90
26703;DHT22;14316;51.074;3.704;2022-12-10T01:32:30;-0.30;99.90
26703;DHT22;14316;51.074;3.704;2022-12-10T01:34:56;-0.30;99.90
26703;DHT22;14316;51.074;3.704;2022-12-10T01:37:22;-0.20;99.90
26703;DHT22;14316;51.074;3.704;2022-12-10T01:39:48;-0.20;99.90
26703;DHT22;14316;51.074;3.704;2022-12-10T01:42:15;0.40;99.90
26703;DHT22;14316;51.074;3.704;2022-12-10T01:47:08;-0.20;99.90
26703;DHT22;14316;51.074;3.704;2022-12-10T01:49:35;-0.30;99.90
26703;DHT22;14316;51.074;3.704;2022-12-10T01:52:03;-0.30;99.90
26703;DHT22;14316;51.074;3.704;2022-12-10T01:54:37;-0.40;99.90
26703;DHT22;14316;51.074;3.704;2022-12-10T01:59:30;-0.40;99.90
26703;DHT22;14316;51.074;3.704;2022-12-10T02:05:25;-0.50;99.90
26703;DHT22;14316;51.074;3.704;2022-12-10T02:13:11;-0.40;99.90
26703;DHT22;14316;51.074;3.704;2022-12-10T02:15:52;-0.30;99.90
26703;DHT22;14316;51.074;3.704;2022-12-10T02:18:19;-0.30;99.90
26703;DHT22;14316;51.074;3.704;2022-12-10T02:20:49;-0.30;99.90
26703;DHT22;14316;51.074;3.704;2022-12-10T02:23:27;-0.30;99.90
26703;DHT22;14316;51.074;3.704;2022-12-10T02:26:00;-0.30;99.90
26703;DHT22;14316;51.074;3.704;2022-12-10T02:28:38;0.80;99.90
26703;DHT22;14316;51.074;3.704;2022-12-10T02:31:05;-0.30;99.90
26703;DHT22;14316;51.074;3.704;2022-12-10T02:33:32;-0.40;99.90
26703;DHT22;14316;51.074;3.704;2022-12-10T02:36:01;-0.50;99.90
26703;DHT22;14316;51.074;3.704;2022-12-10T02:38:29;-0.50;99.90
26703;DHT22;14316;51.074;3.704;2022-12-10T02:41:05;0.20;99.90
26703;DHT22;14316;51.074;3.704;2022-12-10T02:43:33;-0.30;99.90
26703;DHT22;14316;51.074;3.704;2022-12-10T02:46:02;-0.30;99.90
26703;DHT22;14316;51.074;3.704;2022-12-10T02:48:29;-0.30;99.90
26703;DHT22;14316;51.074;3.704;2022-12-10T02:50:55;-0.10;99.90
26703;DHT22;14316;51.074;3.704;2022-12-10T02:53:20;0.00;99.90
26703;DHT22;14316;51.074;3.704;2022-12-10T02:58:47;0.20;99.90
26703;DHT22;14316;51.074;3.704;2022-12-10T03:01:55;1.10;99.90
26703;DHT22;14316;51.074;3.704;2022-12-10T03:04:46;0.50;99.90
26703;DHT22;14316;51.074;3.704;2022-12-10T03:07:23;0.30;99.90
26703;DHT22;14316;51.074;3.704;2022-12-10T03:10:07;0.20;99.90
26703;DHT22;14316;51.074;3.704;2022-12-10T03:12:41;1.20;99.90
26703;DHT22;14316;51.074;3.704;2022-12-10T03:15:10;0.30;99.90
26703;DHT22;14316;51.074;3.704;2022-12-10T03:17:38;0.20;99.90
26703;DHT22;14316;51.074;3.704;2022-12-10T03:20:08;0.30;99.90
26703;DHT22;14316;51.074;3.704;2022-12-10T03:22:38;0.20;99.90
26703;DHT22;14316;51.074;3.704;2022-12-10T03:25:06;1.10;99.90
26703;DHT22;14316;51.074;3.704;2022-12-10T03:27:33;0.20;99.90
26703;DHT22;14316;51.074;3.704;2022-12-10T03:30:00;0.30;99.90
26703;DHT22;14316;51.074;3.704;2022-12-10T03:32:28;0.60;99.90
26703;DHT22;14316;51.074;3.704;2022-12-10T03:34:57;0.50;99.90
26703;DHT22;14316;51.074;3.704;2022-12-10T03:37:24;1.50;99.90
26703;DHT22;14316;51.074;3.704;2022-12-10T03:39:51;0.70;99.90
26703;DHT22;14316;51.074;3.704;2022-12-10T03:42:17;0.70;99.90
26703;DHT22;14316;51.074;3.704;2022-12-10T03:44:43;0.80;99.90
26703;DHT22;14316;51.074;3.704;2022-12-10T03:47:12;0.80;99.90
26703;DHT22;14316;51.074;3.704;2022-12-10T03:49:39;1.90;99.90
26703;DHT22;14316;51.074;3.704;2022-12-10T03:52:05;0.70;99.90
26703;DHT22;14316;51.074;3.704;2022-12-10T03:54:31;0.70;99.90
26703;DHT22;14316;51.074;3.704;2022-12-10T03:56:57;1.60;99.90
26703;DHT22;14316;51.074;3.704;2022-12-10T03:59:23;0.80;99.90
26703;DHT22;14316;51.074;3.704;2022-12-10T04:01:48;1.00;99.90
26703;DHT22;14316;51.074;3.704;2022-12-10T04:04:14;1.10;99.90
26703;DHT22;14316;51.074;3.704;2022-12-10T04:06:41;0.70;99.90
26703;DHT22;14316;51.074;3.704;2022-12-10T04:09:10;0.50;99.90
26703;DHT22;14316;51.074;3.704;2022-12-10T04:11:36;0.50;99.90
26703;DHT22;14316;51.074;3.704;2022-12-10T04:14:02;1.30;99.90
26703;DHT22;14316;51.074;3.704;2022-12-10T04:16:47;0.40;99.90
26703;DHT22;14316;51.074;3.704;2022-12-10T04:19:14;0.60;99.90
26703;DHT22;14316;51.074;3.704;2022-12-10T04:21:42;1.30;99.90
26703;DHT22;14316;51.074;3.704;2022-12-10T04:24:29;0.70;99.90
26703;DHT22;14316;51.074;3.704;2022-12-10T04:29:48;0.50;99.90
26703;DHT22;14316;51.074;3.704;2022-12-10T04:32:13;0.40;99.90
26703;DHT22;14316;51.074;3.704;2022-12-10T04:34:39;0.40;99.90
26703;DHT22;14316;51.074;3.704;2022-12-10T04:37:05;0.40;99.90
26703;DHT22;14316;51.074;3.704;2022-12-10T04:39:31;0.60;99.90
26703;DHT22;14316;51.074;3.704;2022-12-10T04:41:59;0.30;99.90
26703;DHT22;14316;51.074;3.704;2022-12-10T04:44:25;0.60;99.90
26703;DHT22;14316;51.074;3.704;2022-12-10T04:46:51;0.90;99.90
26703;DHT22;14316;51.074;3.704;2022-12-10T04:49:17;1.10;99.90
26703;DHT22;14316;51.074;3.704;2022-12-10T04:51:43;0.20;99.90
26703;DHT22;14316;51.074;3.704;2022-12-10T04:54:10;0.20;99.90
26703;DHT22;14316;51.074;3.704;2022-12-10T04:56:36;0.60;99.90
26703;DHT22;14316;51.074;3.704;2022-12-10T04:59:03;0.40;99.90
26703;DHT22;14316;51.074;3.704;2022-12-10T05:01:29;0.40;99.90
26703;DHT22;14316;51.074;3.704;2022-12-10T05:03:57;0.40;99.90
26703;DHT22;14316;51.074;3.704;2022-12-10T05:06:23;0.60;99.90
26703;DHT22;14316;51.074;3.704;2022-12-10T05:08:49;0.50;99.90
26703;DHT22;14316;51.074;3.704;2022-12-10T05:11:17;0.50;99.90
26703;DHT22;14316;51.074;3.704;2022-12-10T05:13:43;0.50;99.90
26703;DHT22;14316;51.074;3.704;2022-12-10T05:16:11;0.60;99.90
26703;DHT22;14316;51.074;3.704;2022-12-10T05:18:38;1.40;99.90
26703;DHT22;14316;51.074;3.704;2022-12-10T05:21:07;0.50;99.90
26703;DHT22;14316;51.074;3.704;2022-12-10T05:23:36;0.40;99.90
26703;DHT22;14316;51.074;3.704;2022-12-10T05:26:23;0.40;99.90
26703;DHT22;14316;51.074;3.704;2022-12-10T05:28:52;0.40;99.90
26703;DHT22;14316;51.074;3.704;2022-12-10T05:31:27;0.30;99.90
26703;DHT22;14316;51.074;3.704;2022-12-10T05:33:54;0.20;99.90
26703;DHT22;14316;51.074;3.704;2022-12-10T05:36:26;0.30;99.90
26703;DHT22;14316;51.074;3.704;2022-12-10T05:38:53;0.30;99.90
26703;DHT22;14316;51.074;3.704;2022-12-10T05:41:22;0.50;99.90
26703;DHT22;14316;51.074;3.704;2022-12-10T05:43:50;0.60;99.90
26703;DHT22;14316;51.074;3.704;2022-12-10T05:46:24;0.60;99.90
26703;DHT22;14316;51.074;3.704;2022-12-10T05:48:51;0.50;99.90
26703;DHT22;14316;51.074;3.704;2022-12-10T05:51:25;1.60;99.90
26703;DHT22;14316;51.074;3.704;2022-12-10T05:53:52;0.40;99.90
26703;DHT22;14316;51.074;3.704;2022-12-10T05:56:21;0.40;99.90
26703;DHT22;14316;51.074;3.704;2022-12-10T05:58:49;0.60;99.90
26703;DHT22;14316;51.074;3.704;2022-12-10T06:01:18;0.50;99.90
26703;DHT22;14316;51.074;3.704;2022-12-10T06:03:44;0.40;99.90
26703;DHT22;14316;51.074;3.704;2022-12-10T06:06:10;0.50;99.90
26703;DHT22;14316;51.074;3.704;2022-12-10T06:08:38;0.50;99.90
26703;DHT22;14316;51.074;3.704;2022-12-10T06:11:07;0.60;99.90
26703;DHT22;14316;51.074;3.704;2022-12-10T06:13:33;0.90;99.90
26703;DHT22;14316;51.074;3.704;2022-12-10T06:15:59;1.20;99.90
26703;DHT22;14316;51.074;3.704;2022-12-10T06:18:24;1.30;99.90
26703;DHT22;14316;51.074;3.704;2022-12-10T06:20:51;0.70;99.90
26703;DHT22;14316;51.074;3.704;2022-12-10T06:23:17;0.50;99.90
26703;DHT22;14316;51.074;3.704;2022-12-10T06:25:42;0.40;99.90
26703;DHT22;14316;51.074;3.704;2022-12-10T06:28:08;0.50;99.90
26703;DHT22;14316;51.074;3.704;2022-12-10T06:30:34;0.50;99.90
26703;DHT22;14316;51.074;3.704;2022-12-10T06:33:00;0.60;99.90
26703;DHT22;14316;51.074;3.704;2022-12-10T06:35:26;0.70;99.90
26703;DHT22;14316;51.074;3.704;2022-12-10T06:37:51;0.70;99.90
26703;DHT22;14316;51.074;3.704;2022-12-10T06:40:18;0.60;99.90
26703;DHT22;14316;51.074;3.704;2022-12-10T06:42:44;0.40;99.90
26703;DHT22;14316;51.074;3.704;2022-12-10T06:45:10;0.50;99.90
26703;DHT22;14316;51.074;3.704;2022-12-10T06:47:36;0.50;99.90
26703;DHT22;14316;51.074;3.704;2022-12-10T06:50:02;0.70;99.90
26703;DHT22;14316;51.074;3.704;2022-12-10T06:52:28;0.70;99.90
26703;DHT22;14316;51.074;3.704;2022-12-10T06:54:53;0.90;99.90
26703;DHT22;14316;51.074;3.704;2022-12-10T06:57:21;0.90;99.90
26703;DHT22;14316;51.074;3.704;2022-12-10T06:59:46;0.90;99.90
26703;DHT22;14316;51.074;3.704;2022-12-10T07:02:12;0.70;99.90
26703;DHT22;14316;51.074;3.704;2022-12-10T07:04:38;0.70;99.90
26703;DHT22;14316;51.074;3.704;2022-12-10T07:07:05;1.30;99.90
26703;DHT22;14316;51.074;3.704;2022-12-10T07:09:36;0.80;99.90
26703;DHT22;14316;51.074;3.704;2022-12-10T07:12:05;0.80;99.90
26703;DHT22;14316;51.074;3.704;2022-12-10T07:14:31;0.80;99.90
26703;DHT22;14316;51.074;3.704;2022-12-10T07:16:56;0.70;99.90
26703;DHT22;14316;51.074;3.704;2022-12-10T07:19:22;0.80;99.90
26703;DHT22;14316;51.074;3.704;2022-12-10T07:21:49;1.50;99.90
26703;DHT22;14316;51.074;3.704;2022-12-10T07:24:18;0.60;99.90
26703;DHT22;14316;51.074;3.704;2022-12-10T07:26:45;1.00;99.90
26703;DHT22;14316;51.074;3.704;2022-12-10T07:29:16;0.70;99.90
26703;DHT22;14316;51.074;3.704;2022-12-10T07:31:42;0.80;99.90
26703;DHT22;14316;51.074;3.704;2022-12-10T07:34:10;0.70;99.90
26703;DHT22;14316;51.074;3.704;2022-12-10T07:36:35;0.70;99.90
26703;DHT22;14316;51.074;3.704;2022-12-10T07:39:04;1.00;99.90
26703;DHT22;14316;51.074;3.704;2022-12-10T07:41:30;1.00;99.90
26703;DHT22;14316;51.074;3.704;2022-12-10T07:43:55;1.30;99.90
26703;DHT22;14316;51.074;3.704;2022-12-10T07:46:25;1.50;99.90
26703;DHT22;14316;51.074;3.704;2022-12-10T07:48:50;1.20;99.90
26703;DHT22;14316;51.074;3.704;2022-12-10T07:51:18;0.60;99.90
26703;DHT22;14316;51.074;3.704;2022-12-10T07:53:46;0.70;99.90
26703;DHT22;14316;51.074;3.704;2022-12-10T07:56:11;0.80;99.90
26703;DHT22;14316;51.074;3.704;2022-12-10T07:58:41;1.20;99.90
26703;DHT22;14316;51.074;3.704;2022-12-10T08:01:09;0.70;99.90
26703;DHT22;14316;51.074;3.704;2022-12-10T08:03:35;0.80;99.90
26703;DHT22;14316;51.074;3.704;2022-12-10T08:06:08;0.90;99.90
26703;DHT22;14316;51.074;3.704;2022-12-10T08:08:36;0.90;99.90
26703;DHT22;14316;51.074;3.704;2022-12-10T08:11:03;0.80;99.90
26703;DHT22;14316;51.074;3.704;2022-12-10T08:13:29;0.70;99.90
26703;DHT22;14316;51.074;3.704;2022-12-10T08:16:13;0.70;99.90
26703;DHT22;14316;51.074;3.704;2022-12-10T08:18:40;0.70;99.90
26703;DHT22;14316;51.074;3.704;2022-12-10T08:21:07;0.60;99.90
26703;DHT22;14316;51.074;3.704;2022-12-10T08:23:34;0.70;99.90
26703;DHT22;14316;51.074;3.704;2022-12-10T08:26:08;0.70;99.90
26703;DHT22;14316;51.074;3.704;2022-12-10T08:28:34;0.80;99.90
26703;DHT22;14316;51.074;3.704;2022-12-10T08:31:00;0.80;99.90
26703;DHT22;14316;51.074;3.704;2022-12-10T08:33:26;0.80;99.90
26703;DHT22;14316;51.074;3.704;2022-12-10T08:35:52;2.60;99.90
26703;DHT22;14316;51.074;3.704;2022-12-10T08:38:22;0.80;99.90
26703;DHT22;14316;51.074;3.704;2022-12-10T08:40:48;0.90;99.90
26703;DHT22;14316;51.074;3.704;2022-12-10T08:43:13;1.00;99.90
26703;DHT22;14316;51.074;3.704;2022-12-10T08:45:39;1.10;99.90
26703;DHT22;14316;51.074;3.704;2022-12-10T08:48:05;1.00;99.90
26703;DHT22;14316;51.074;3.704;2022-12-10T08:50:31;1.00;99.90
26703;DHT22;14316;51.074;3.704;2022-12-10T08:52:56;1.30;99.90
26703;DHT22;14316;51.074;3.704;2022-12-10T08:55:22;1.00;99.90
26703;DHT22;14316;51.074;3.704;2022-12-10T08:57:47;1.00;99.90
26703;DHT22;14316;51.074;3.704;2022-12-10T09:00:14;1.10;99.90
26703;DHT22;14316;51.074;3.704;2022-12-10T09:02:39;1.10;99.90
26703;DHT22;14316;51.074;3.704;2022-12-10T09:05:06;1.20;99.90
26703;DHT22;14316;51.074;3.704;2022-12-10T09:07:32;1.30;99.90
26703;DHT22;14316;51.074;3.704;2022-12-10T09:09:57;1.30;99.90
26703;DHT22;14316;51.074;3.704;2022-12-10T09:12:23;1.30;99.90
26703;DHT22;14316;51.074;3.704;2022-12-10T09:14:49;1.30;99.90
26703;DHT22;14316;51.074;3.704;2022-12-10T09:17:15;1.20;99.90
26703;DHT22;14316;51.074;3.704;2022-12-10T09:19:41;1.40;99.90
26703;DHT22;14316;51.074;3.704;2022-12-10T09:22:06;1.30;99.90
26703;DHT22;14316;51.074;3.704;2022-12-10T09:24:32;1.40;99.90
26703;DHT22;14316;51.074;3.704;2022-12-10T09:27:00;1.30;99.90
26703;DHT22;14316;51.074;3.704;2022-12-10T09:29:26;1.50;99.90
26703;DHT22;14316;51.074;3.704;2022-12-10T09:31:52;1.50;99.90
26703;DHT22;14316;51.074;3.704;2022-12-10T09:34:17;2.70;99.90
26703;DHT22;14316;51.074;3.704;2022-12-10T09:36:43;1.60;99.90
26703;DHT22;14316;51.074;3.704;2022-12-10T09:39:09;2.20;99.90
26703;DHT22;14316;51.074;3.704;2022-12-10T09:47:04;1.90;99.90
26703;DHT22;14316;51.074;3.704;2022-12-10T09:52:14;1.90;99.90
26703;DHT22;14316;51.074;3.704;2022-12-10T09:55:02;2.00;99.90
26703;DHT22;14316;51.074;3.704;2022-12-10T09:57:31;2.00;99.90
26703;DHT22;14316;51.074;3.704;2022-12-10T10:00:05;1.80;99.90
26703;DHT22;14316;51.074;3.704;2022-12-10T10:02:32;1.70;99.90
26703;DHT22;14316;51.074;3.704;2022-12-10T10:05:19;1.70;99.90
26703;DHT22;14316;51.074;3.704;2022-12-10T10:07:55;1.60;99.90
26703;DHT22;14316;51.074;3.704;2022-12-10T10:12:47;2.60;99.90
26703;DHT22;14316;51.074;3.704;2022-12-10T10:15:16;2.00;99.90
26703;DHT22;14316;51.074;3.704;2022-12-10T10:17:44;2.00;99.90
26703;DHT22;14316;51.074;3.704;2022-12-10T10:20:13;1.90;99.90
26703;DHT22;14316;51.074;3.704;2022-12-10T10:22:40;2.10;99.90
26703;DHT22;14316;51.074;3.704;2022-12-10T10:25:16;2.20;99.90
26703;DHT22;14316;51.074;3.704;2022-12-10T10:27:42;2.30;99.90
26703;DHT22;14316;51.074;3.704;2022-12-10T10:30:15;2.30;99.90
26703;DHT22;14316;51.074;3.704;2022-12-10T10:36:01;2.60;99.90
26703;DHT22;14316;51.074;3.704;2022-12-10T10:38:20;2.90;99.90
26703;DHT22;14316;51.074;3.704;2022-12-10T10:40:56;2.90;99.90
26703;DHT22;14316;51.074;3.704;2022-12-10T10:43:25;3.30;99.90
26703;DHT22;14316;51.074;3.704;2022-12-10T10:45:59;3.20;99.90
26703;DHT22;14316;51.074;3.704;2022-12-10T10:48:27;3.30;99.90
26703;DHT22;14316;51.074;3.704;2022-12-10T10:51:07;3.40;99.90
26703;DHT22;14316;51.074;3.704;2022-12-10T10:53:41;3.80;99.90
26703;DHT22;14316;51.074;3.704;2022-12-10T10:56:22;4.10;99.90
26703;DHT22;14316;51.074;3.704;2022-12-10T10:59:50;3.80;99.90
26703;DHT22;14316;51.074;3.704;2022-12-10T11:04:51;5.10;99.90
26703;DHT22;14316;51.074;3.704;2022-12-10T11:07:32;5.20;99.90
26703;DHT22;14316;51.074;3.704;2022-12-10T11:09:59;5.00;99.90
26703;DHT22;14316;51.074;3.704;2022-12-10T11:12:39;5.30;99.90
26703;DHT22;14316;51.074;3.704;2022-12-10T11:17:54;4.10;99.90
26703;DHT22;14316;51.074;3.704;2022-12-10T11:20:32;4.10;99.90
26703;DHT22;14316;51.074;3.704;2022-12-10T11:23:01;3.60;99.90
26703;DHT22;14316;51.074;3.704;2022-12-10T11:31:30;3.10;99.90
26703;DHT22;14316;51.074;3.704;2022-12-10T11:42:52;4.30;99.90
26703;DHT22;14316;51.074;3.704;2022-12-10T12:06:51;4.00;99.90
26703;DHT22;14316;51.074;3.704;2022-12-10T12:14:40;4.00;99.90
26703;DHT22;14316;51.074;3.704;2022-12-10T12:17:28;3.60;99.90
26703;DHT22;14316;51.074;3.704;2022-12-10T12:20:03;3.50;99.90
26703;DHT22;14316;51.074;3.704;2022-12-10T12:22:39;3.40;99.90
26703;DHT22;14316;51.074;3.704;2022-12-10T12:27:51;3.40;99.90
26703;DHT22;14316;51.074;3.704;2022-12-10T12:30:20;3.30;99.90
26703;DHT22;14316;51.074;3.704;2022-12-10T12:35:45;3.50;99.90
26703;DHT22;14316;51.074;3.704;2022-12-10T12:38:32;3.40;99.90
26703;DHT22;14316;51.074;3.704;2022-12-10T12:41:05;3.20;99.90
26703;DHT22;14316;51.074;3.704;2022-12-10T12:46:04;3.00;99.90
26703;DHT22;14316;51.074;3.704;2022-12-10T12:48:58;3.10;99.90
26703;DHT22;14316;51.074;3.704;2022-12-10T12:51:36;3.40;99.90
26703;DHT22;14316;51.074;3.704;2022-12-10T12:54:04;3.50;99.90
